Time;durP1;ratioP1;P1;durP2;ratioP2;P2;SDS_P1;SDS_P2;PMS_P1;PMS_P2;Temp;Humidity;BMP_temperature;BMP_pressure;BME280_temperature;BME280_humidity;BME280_pressure;Samples;Min_cycle;Max_cycle;Signal;HPM_P1;HPM_P2
2023/08/26 00:02:24;;;;;;;4.17;2.00;;;;;;;;;;5093364;28;20913;-85
2023/08/26 00:04:52;;;;;;;2.83;1.80;;;;;;;;;;5093751;28;20316;-85
2023/08/26 00:07:19;;;;;;;5.83;2.03;;;;;;;;;;5092861;28;20204;-85
2023/08/26 00:09:46;;;;;;;4.70;2.20;;;;;;;;;;5093246;28;20230;-85
2023/08/26 00:12:15;;;;;;;4.03;2.13;;;;;;;;;;5092888;28;20670;-85
2023/08/26 00:14:42;;;;;;;4.37;1.90;;;;;;;;;;5093246;28;20225;-85
2023/08/26 00:17:10;;;;;;;4.43;1.90;;;;;;;;;;5085452;28;20267;-85
2023/08/26 00:19:37;;;;;;;4.30;2.07;;;;;;;;;;5072303;28;20199;-85
2023/08/26 00:22:05;;;;;;;5.27;2.10;;;;;;;;;;5072350;28;20213;-85
2023/08/26 00:24:32;;;;;;;3.03;1.90;;;;;;;;;;5072576;28;20292;-84
2023/08/26 00:27:00;;;;;;;4.03;2.07;;;;;;;;;;5072146;28;20195;-85
2023/08/26 00:29:29;;;;;;;4.10;2.00;;;;;;;;;;5071974;28;20652;-84
2023/08/26 00:31:56;;;;;;;5.37;2.13;;;;;;;;;;5072440;28;20211;-85
2023/08/26 00:34:23;;;;;;;3.00;2.07;;;;;;;;;;5072980;28;20217;-84
2023/08/26 00:36:51;;;;;;;3.23;1.73;;;;;;;;;;5089874;28;20261;-84
2023/08/26 00:39:18;;;;;;;4.37;2.10;;;;;;;;;;5091994;28;20194;-84
2023/08/26 00:41:45;;;;;;;3.97;1.70;;;;;;;;;;5092256;28;20230;-85
2023/08/26 00:44:12;;;;;;;3.60;1.77;;;;;;;;;;5091924;28;20214;-86
2023/08/26 00:46:41;;;;;;;4.70;2.20;;;;;;;;;;5091872;28;20571;-85
2023/08/26 00:49:09;;;;;;;3.27;1.70;;;;;;;;;;5091806;28;20190;-84
2023/08/26 00:51:36;;;;;;;5.20;1.73;;;;;;;;;;5091777;28;20570;-86
2023/08/26 00:54:04;;;;;;;4.37;2.13;;;;;;;;;;5091381;28;20266;-85
2023/08/26 00:56:31;;;;;;;3.07;2.00;;;;;;;;;;5092268;28;20635;-86
2023/08/26 00:58:59;;;;;;;4.73;2.10;;;;;;;;;;5092285;28;20226;-84
2023/08/26 01:01:26;;;;;;;4.33;2.17;;;;;;;;;;5091896;28;20194;-85
2023/08/26 01:03:55;;;;;;;3.57;1.90;;;;;;;;;;5091672;28;20290;-85
2023/08/26 01:06:22;;;;;;;2.80;1.83;;;;;;;;;;5091943;28;20281;-84
2023/08/26 01:08:49;;;;;;;3.63;2.03;;;;;;;;;;5083008;28;20615;-84
2023/08/26 01:11:21;;;;;;;4.33;2.03;;;;;;;;;;5071642;28;20201;-85
2023/08/26 01:13:52;;;;;;;4.33;1.90;;;;;;;;;;5071980;28;20199;-85
2023/08/26 01:16:21;;;;;;;4.30;2.27;;;;;;;;;;5071256;28;20321;-84
2023/08/26 01:18:49;;;;;;;3.93;2.17;;;;;;;;;;5071690;28;20571;-85
2023/08/26 01:21:20;;;;;;;4.53;2.40;;;;;;;;;;5071942;28;20222;-85
2023/08/26 01:23:49;;;;;;;5.43;2.03;;;;;;;;;;5071519;28;20234;-84
2023/08/26 01:26:16;;;;;;;4.90;2.40;;;;;;;;;;5071509;28;20297;-85
2023/08/26 01:28:43;;;;;;;5.53;2.17;;;;;;;;;;5071713;28;20286;-85
2023/08/26 01:31:12;;;;;;;3.37;2.37;;;;;;;;;;5072212;28;20282;-85
2023/08/26 01:33:44;;;;;;;3.20;2.30;;;;;;;;;;5071300;28;20226;-85
2023/08/26 01:36:15;;;;;;;3.23;2.13;;;;;;;;;;5071498;28;20223;-85
2023/08/26 01:38:42;;;;;;;6.40;2.53;;;;;;;;;;5071577;28;20293;-85
2023/08/26 01:41:13;;;;;;;4.83;2.30;;;;;;;;;;5071748;28;20195;-85
2023/08/26 01:43:41;;;;;;;5.97;2.33;;;;;;;;;;5071745;28;20256;-84
2023/08/26 01:46:08;;;;;;;3.83;2.40;;;;;;;;;;5071698;28;20195;-86
2023/08/26 01:48:36;;;;;;;4.40;2.43;;;;;;;;;;5075214;28;20260;-85
2023/08/26 01:51:03;;;;;;;4.67;2.20;;;;;;;;;;5075489;28;20320;-85
2023/08/26 01:53:30;;;;;;;5.23;2.33;;;;;;;;;;5075108;28;20250;-85
2023/08/26 01:55:58;;;;;;;5.90;2.33;;;;;;;;;;5075012;28;20385;-85
2023/08/26 01:58:27;;;;;;;5.60;2.27;;;;;;;;;;5075185;28;20206;-84
2023/08/26 02:00:54;;;;;;;6.20;2.40;;;;;;;;;;5075444;28;20256;-85
2023/08/26 02:03:22;;;;;;;5.07;2.70;;;;;;;;;;5074589;28;20234;-85
2023/08/26 02:05:49;;;;;;;4.60;2.57;;;;;;;;;;5075369;28;20282;-85
2023/08/26 02:08:16;;;;;;;5.70;2.90;;;;;;;;;;5075124;28;20203;-85
2023/08/26 02:10:44;;;;;;;7.37;2.40;;;;;;;;;;5074940;28;20274;-85
2023/08/26 02:13:12;;;;;;;4.57;2.90;;;;;;;;;;5075039;28;20281;-84
2023/08/26 02:15:40;;;;;;;3.37;2.13;;;;;;;;;;5074684;28;20195;-84
2023/08/26 02:18:07;;;;;;;4.50;2.30;;;;;;;;;;5089464;28;20777;-85
2023/08/26 02:20:35;;;;;;;4.13;2.50;;;;;;;;;;5094968;28;20191;-84
2023/08/26 02:23:02;;;;;;;4.83;2.67;;;;;;;;;;5094587;28;20904;-85
2023/08/26 02:25:29;;;;;;;5.60;2.40;;;;;;;;;;5095237;28;20194;-84
2023/08/26 02:27:57;;;;;;;5.97;2.43;;;;;;;;;;5095029;28;20584;-84
2023/08/26 02:30:24;;;;;;;5.77;2.33;;;;;;;;;;5094630;28;20267;-84
2023/08/26 02:32:53;;;;;;;5.10;2.10;;;;;;;;;;5094400;28;20278;-84
2023/08/26 02:35:20;;;;;;;5.80;2.60;;;;;;;;;;5095186;28;20229;-85
2023/08/26 02:37:47;;;;;;;5.00;2.07;;;;;;;;;;5094205;28;20710;-85
2023/08/26 02:40:15;;;;;;;4.43;2.50;;;;;;;;;;5094721;28;20287;-85
2023/08/26 02:42:42;;;;;;;4.87;2.10;;;;;;;;;;5094736;28;20199;-86
2023/08/26 02:45:09;;;;;;;2.87;2.23;;;;;;;;;;5094293;28;20234;-85
2023/08/26 02:47:36;;;;;;;5.30;2.63;;;;;;;;;;5094612;28;20563;-84
2023/08/26 02:50:05;;;;;;;3.80;2.47;;;;;;;;;;5094395;28;20287;-85
2023/08/26 02:52:33;;;;;;;4.07;2.40;;;;;;;;;;5094611;28;20195;-85
2023/08/26 02:55:00;;;;;;;4.93;2.20;;;;;;;;;;5094225;28;20313;-85
2023/08/26 02:57:28;;;;;;;5.80;2.60;;;;;;;;;;5093019;28;20299;-84
2023/08/26 02:59:56;;;;;;;5.37;2.20;;;;;;;;;;5092790;28;20195;-85
2023/08/26 03:02:24;;;;;;;4.47;2.70;;;;;;;;;;5094100;28;20277;-85
2023/08/26 03:04:51;;;;;;;6.27;2.67;;;;;;;;;;5094183;28;20201;-85
2023/08/26 03:07:20;;;;;;;5.37;2.40;;;;;;;;;;5093877;28;20199;-85
2023/08/26 03:09:47;;;;;;;7.23;2.50;;;;;;;;;;5094420;28;20198;-85
2023/08/26 03:12:15;;;;;;;5.77;2.43;;;;;;;;;;5093961;28;20561;-85
2023/08/26 03:14:42;;;;;;;5.93;2.20;;;;;;;;;;5093722;28;20281;-85
2023/08/26 03:17:09;;;;;;;5.77;2.47;;;;;;;;;;5094064;28;20215;-85
2023/08/26 03:19:37;;;;;;;4.73;2.53;;;;;;;;;;5094047;28;20206;-85
2023/08/26 03:22:04;;;;;;;5.80;2.37;;;;;;;;;;5093605;28;20678;-85
2023/08/26 03:24:36;;;;;;;8.70;2.60;;;;;;;;;;5093787;28;20226;-84
2023/08/26 03:27:03;;;;;;;3.60;2.40;;;;;;;;;;5094272;28;20212;-85
2023/08/26 03:29:30;;;;;;;5.70;2.40;;;;;;;;;;5093494;28;20724;-85
2023/08/26 03:31:58;;;;;;;4.87;2.53;;;;;;;;;;5093602;28;20675;-84
2023/08/26 03:34:25;;;;;;;6.43;2.93;;;;;;;;;;5093749;28;20667;-84
2023/08/26 03:36:52;;;;;;;5.03;2.60;;;;;;;;;;5093572;28;20246;-84
2023/08/26 03:39:19;;;;;;;6.27;2.43;;;;;;;;;;5093354;28;20240;-85
2023/08/26 03:41:48;;;;;;;5.07;2.50;;;;;;;;;;5093524;28;20202;-85
2023/08/26 03:44:15;;;;;;;5.07;2.93;;;;;;;;;;5093135;28;20238;-84
2023/08/26 03:46:43;;;;;;;5.93;2.73;;;;;;;;;;5093431;28;20217;-85
2023/08/26 03:49:10;;;;;;;4.47;2.53;;;;;;;;;;5093547;28;20202;-84
2023/08/26 03:51:37;;;;;;;5.57;2.53;;;;;;;;;;5093598;28;20190;-84
2023/08/26 03:54:04;;;;;;;4.70;2.73;;;;;;;;;;5093262;28;20258;-85
2023/08/26 03:56:32;;;;;;;5.73;2.53;;;;;;;;;;5093340;28;20194;-86
2023/08/26 03:59:00;;;;;;;5.97;2.33;;;;;;;;;;5092945;28;20226;-84
2023/08/26 04:01:29;;;;;;;4.67;2.30;;;;;;;;;;5093058;28;20277;-84
2023/08/26 04:03:57;;;;;;;5.47;2.73;;;;;;;;;;5093294;28;20198;-85
2023/08/26 04:06:24;;;;;;;6.80;2.87;;;;;;;;;;5093183;28;20260;-84
2023/08/26 04:08:51;;;;;;;5.50;2.90;;;;;;;;;;5092903;28;20221;-85
2023/08/26 04:11:19;;;;;;;4.07;2.37;;;;;;;;;;5092400;28;20736;-85
2023/08/26 04:13:46;;;;;;;5.97;2.60;;;;;;;;;;5092880;28;20226;-85
2023/08/26 04:16:15;;;;;;;6.07;2.90;;;;;;;;;;5092445;28;20277;-84
2023/08/26 04:18:44;;;;;;;4.67;2.40;;;;;;;;;;5092601;28;20307;-85
2023/08/26 04:21:12;;;;;;;6.90;2.80;;;;;;;;;;5092387;28;20735;-84
2023/08/26 04:23:39;;;;;;;3.97;2.40;;;;;;;;;;5092473;28;20230;-85
2023/08/26 04:26:06;;;;;;;4.93;2.47;;;;;;;;;;5092745;28;20354;-83
2023/08/26 04:28:34;;;;;;;4.10;2.27;;;;;;;;;;5092428;28;20198;-84
2023/08/26 04:31:01;;;;;;;6.07;2.90;;;;;;;;;;5092343;28;20226;-84
2023/08/26 04:33:30;;;;;;;5.27;2.63;;;;;;;;;;5092326;28;20195;-84
2023/08/26 04:35:57;;;;;;;8.13;2.77;;;;;;;;;;5092124;28;20580;-85
2023/08/26 04:38:25;;;;;;;9.63;2.77;;;;;;;;;;5092582;28;20321;-83
2023/08/26 04:40:52;;;;;;;3.00;2.63;;;;;;;;;;5091077;28;20248;-84
2023/08/26 04:43:20;;;;;;;6.57;2.77;;;;;;;;;;5092212;28;20631;-86
2023/08/26 04:45:47;;;;;;;5.17;2.53;;;;;;;;;;5092743;28;20194;-86
2023/08/26 04:48:15;;;;;;;5.37;2.60;;;;;;;;;;5092415;28;20281;-86
2023/08/26 04:50:44;;;;;;;6.43;2.80;;;;;;;;;;5092202;28;20202;-85
2023/08/26 04:53:11;;;;;;;6.07;2.47;;;;;;;;;;5091865;28;20285;-85
2023/08/26 04:55:39;;;;;;;6.20;2.53;;;;;;;;;;5092001;28;20629;-84
2023/08/26 04:58:08;;;;;;;6.97;2.70;;;;;;;;;;5091992;28;20295;-85
2023/08/26 05:00:36;;;;;;;6.70;2.83;;;;;;;;;;5092501;28;20218;-85
2023/08/26 05:03:04;;;;;;;6.40;2.53;;;;;;;;;;5092196;28;20225;-85
2023/08/26 05:05:31;;;;;;;4.53;2.50;;;;;;;;;;5092454;28;20190;-85
2023/08/26 05:08:00;;;;;;;9.07;2.60;;;;;;;;;;5091932;28;20222;-84
2023/08/26 05:10:27;;;;;;;8.50;2.70;;;;;;;;;;5091693;28;20241;-85
2023/08/26 05:12:55;;;;;;;6.00;2.47;;;;;;;;;;5091825;28;20720;-84
2023/08/26 05:15:22;;;;;;;6.57;2.40;;;;;;;;;;5091647;28;20198;-84
2023/08/26 05:17:50;;;;;;;9.40;2.73;;;;;;;;;;5091467;28;20319;-85
2023/08/26 05:20:17;;;;;;;5.10;2.53;;;;;;;;;;5091903;28;20628;-84
2023/08/26 05:22:44;;;;;;;6.07;2.50;;;;;;;;;;5090946;28;20199;-85
2023/08/26 05:25:13;;;;;;;5.63;2.27;;;;;;;;;;5092036;28;20198;-84
2023/08/26 05:27:40;;;;;;;6.33;2.33;;;;;;;;;;5091564;28;20666;-84
2023/08/26 05:30:08;;;;;;;5.07;2.17;;;;;;;;;;5091793;28;20318;-84
2023/08/26 05:32:36;;;;;;;7.37;2.60;;;;;;;;;;5091933;28;20237;-85
2023/08/26 05:35:03;;;;;;;7.17;2.40;;;;;;;;;;5092361;28;20368;-85
2023/08/26 05:37:30;;;;;;;5.33;2.53;;;;;;;;;;5091388;28;20218;-85
2023/08/26 05:39:58;;;;;;;5.13;2.30;;;;;;;;;;5091314;28;20216;-85
2023/08/26 05:42:27;;;;;;;5.20;2.30;;;;;;;;;;5091504;28;20285;-84
2023/08/26 05:44:54;;;;;;;5.57;2.13;;;;;;;;;;5091995;28;20343;-85
2023/08/26 05:47:22;;;;;;;5.40;2.57;;;;;;;;;;5091195;28;20719;-86
2023/08/26 05:49:49;;;;;;;7.00;2.23;;;;;;;;;;5091679;28;20666;-86
2023/08/26 05:52:16;;;;;;;6.90;2.23;;;;;;;;;;5091982;28;20286;-85
2023/08/26 05:54:44;;;;;;;4.37;2.20;;;;;;;;;;5091090;28;20307;-84
2023/08/26 05:57:12;;;;;;;3.97;2.63;;;;;;;;;;5091710;28;20626;-85
2023/08/26 05:59:41;;;;;;;7.50;2.37;;;;;;;;;;5090984;28;20209;-85
2023/08/26 06:02:08;;;;;;;5.00;2.30;;;;;;;;;;5091215;28;20640;-85
2023/08/26 06:04:36;;;;;;;8.50;2.30;;;;;;;;;;5091340;28;20225;-85
2023/08/26 06:07:03;;;;;;;6.13;2.40;;;;;;;;;;5091360;28;20281;-84
2023/08/26 06:09:31;;;;;;;5.00;2.10;;;;;;;;;;5091140;28;20198;-85
2023/08/26 06:11:58;;;;;;;5.63;2.30;;;;;;;;;;5091267;28;20422;-84
2023/08/26 06:14:26;;;;;;;6.90;2.40;;;;;;;;;;5091259;28;20675;-85
2023/08/26 06:16:55;;;;;;;7.57;2.50;;;;;;;;;;5091334;28;20233;-85
2023/08/26 06:19:22;;;;;;;5.40;1.90;;;;;;;;;;5091239;28;20320;-85
2023/08/26 06:21:50;;;;;;;3.83;2.03;;;;;;;;;;5091485;28;20238;-86
2023/08/26 06:24:17;;;;;;;7.40;2.17;;;;;;;;;;5089923;28;20309;-86
2023/08/26 06:26:45;;;;;;;5.77;1.87;;;;;;;;;;5091443;28;20240;-86
2023/08/26 06:29:13;;;;;;;5.07;1.87;;;;;;;;;;5091178;28;20191;-87
2023/08/26 06:31:41;;;;;;;2.93;1.87;;;;;;;;;;5091406;28;20193;-86
2023/08/26 06:34:10;;;;;;;5.30;1.73;;;;;;;;;;5093026;28;20191;-86
2023/08/26 06:36:40;;;;;;;6.70;2.10;;;;;;;;;;5095058;28;20274;-86
2023/08/26 06:39:07;;;;;;;4.97;1.90;;;;;;;;;;5094679;28;20260;-86
2023/08/26 06:41:35;;;;;;;3.87;1.53;;;;;;;;;;5094667;28;20541;-86
2023/08/26 06:44:02;;;;;;;5.77;1.53;;;;;;;;;;5094912;28;20289;-87
2023/08/26 06:46:30;;;;;;;4.95;1.35;;;;;;;;;;5094923;28;20225;-86
2023/08/26 06:48:58;;;;;;;4.25;1.48;;;;;;;;;;5095430;28;20732;-86
2023/08/26 06:51:28;;;;;;;5.20;1.90;;;;;;;;;;5094933;28;20217;-88
2023/08/26 06:53:56;;;;;;;5.78;1.65;;;;;;;;;;5094951;28;20651;-88
2023/08/26 06:56:24;;;;;;;3.13;0.90;;;;;;;;;;5095262;28;20202;-87
2023/08/26 06:58:52;;;;;;;5.75;1.35;;;;;;;;;;5095574;28;20596;-88
2023/08/26 07:01:20;;;;;;;6.07;1.70;;;;;;;;;;5095399;28;20194;-89
2023/08/26 07:03:47;;;;;;;3.88;1.40;;;;;;;;;;5095629;28;20190;-88
2023/08/26 07:06:15;;;;;;;4.93;1.30;;;;;;;;;;5095284;28;20221;-89
2023/08/26 07:08:44;;;;;;;3.38;1.30;;;;;;;;;;5095448;28;20249;-88
2023/08/26 07:11:12;;;;;;;5.35;1.10;;;;;;;;;;5095091;28;20226;-89
2023/08/26 07:13:39;;;;;;;4.65;1.20;;;;;;;;;;5095311;28;20546;-89
2023/08/26 07:16:07;;;;;;;4.85;1.08;;;;;;;;;;5095180;28;20278;-89
2023/08/26 07:18:34;;;;;;;4.35;1.00;;;;;;;;;;5076062;28;20262;-89
2023/08/26 07:21:02;;;;;;;4.10;1.00;;;;;;;;;;5074583;28;20664;-89
2023/08/26 07:23:29;;;;;;;3.85;1.15;;;;;;;;;;5075485;28;20187;-90
2023/08/26 07:25:59;;;;;;;3.65;0.98;;;;;;;;;;5075390;28;20218;-90
2023/08/26 07:28:26;;;;;;;2.55;0.85;;;;;;;;;;5075139;28;20231;-90
2023/08/26 07:30:55;;;;;;;3.67;1.00;;;;;;;;;;5075044;28;20223;-90
2023/08/26 07:33:22;;;;;;;3.05;1.02;;;;;;;;;;5074882;28;20223;-90
2023/08/26 07:35:49;;;;;;;3.17;1.10;;;;;;;;;;5075098;28;20566;-90
2023/08/26 07:38:17;;;;;;;4.13;1.30;;;;;;;;;;5074944;28;20215;-90
2023/08/26 07:40:44;;;;;;;4.43;0.88;;;;;;;;;;5074545;28;20282;-89
2023/08/26 07:43:13;;;;;;;2.88;0.98;;;;;;;;;;5074761;28;20206;-90
2023/08/26 07:45:41;;;;;;;3.58;0.90;;;;;;;;;;5074576;28;20686;-91
2023/08/26 07:48:08;;;;;;;4.30;1.05;;;;;;;;;;5075028;28;20221;-89
2023/08/26 07:50:36;;;;;;;3.35;0.85;;;;;;;;;;5074585;28;20660;-90
2023/08/26 07:53:05;;;;;;;4.00;1.23;;;;;;;;;;5074885;28;20219;-90
2023/08/26 07:55:32;;;;;;;5.13;1.30;;;;;;;;;;5078758;28;20248;-90
2023/08/26 07:58:00;;;;;;;3.05;0.80;;;;;;;;;;5096699;28;20254;-96
2023/08/26 08:00:39;;;;;;;3.30;1.00;;;;;;;;;;5099527;28;20259;-96
2023/08/26 08:03:09;;;;;;;3.30;1.15;;;;;;;;;;5100102;28;20194;-96
2023/08/26 08:05:36;;;;;;;4.28;0.90;;;;;;;;;;5097025;28;20201;-94
2023/08/26 08:08:04;;;;;;;3.13;1.00;;;;;;;;;;5098595;28;20203;-94
2023/08/26 08:10:31;;;;;;;4.57;1.50;;;;;;;;;;5097706;28;20202;-96
2023/08/26 08:12:59;;;;;;;5.80;1.10;;;;;;;;;;5095535;28;20198;-95
2023/08/26 08:15:26;;;;;;;5.20;1.30;;;;;;;;;;5096385;28;20255;-94
2023/08/26 08:17:56;;;;;;;5.88;1.25;;;;;;;;;;5095879;28;20199;-95
2023/08/26 08:20:23;;;;;;;5.25;1.17;;;;;;;;;;5095041;28;20278;-94
2023/08/26 08:22:51;;;;;;;4.22;1.10;;;;;;;;;;5095493;28;20198;-95
2023/08/26 08:25:19;;;;;;;3.63;1.00;;;;;;;;;;5096806;28;20198;-95
2023/08/26 08:27:47;;;;;;;2.58;0.80;;;;;;;;;;5097684;28;20255;-95
2023/08/26 08:30:15;;;;;;;5.05;1.17;;;;;;;;;;5089366;28;20203;-95
2023/08/26 08:32:42;;;;;;;3.65;1.10;;;;;;;;;;5094987;28;20210;-92
2023/08/26 08:35:12;;;;;;;3.03;0.90;;;;;;;;;;5095140;28;20566;-91
2023/08/26 08:37:39;;;;;;;3.45;0.90;;;;;;;;;;5094525;28;20202;-91
2023/08/26 08:40:07;;;;;;;4.78;0.88;;;;;;;;;;5094554;28;20254;-92
2023/08/26 08:42:35;;;;;;;4.20;1.00;;;;;;;;;;5095020;28;20225;-94
2023/08/26 08:45:04;;;;;;;4.50;1.10;;;;;;;;;;5094587;28;20202;-93
2023/08/26 08:47:32;;;;;;;3.90;1.02;;;;;;;;;;5092754;28;20281;-93
2023/08/26 08:50:00;;;;;;;3.03;0.80;;;;;;;;;;5092870;28;20206;-96
2023/08/26 08:52:30;;;;;;;4.03;0.93;;;;;;;;;;5093446;28;20198;-96
2023/08/26 08:55:07;;;;;;;;;;;;;;;;;;;;;
2023/08/26 08:57:58;;;;;;;3.20;1.13;;;;;;;;;;5070525;28;20199;-89
2023/08/26 09:00:28;;;;;;;4.32;0.95;;;;;;;;;;5072295;28;20249;-95
2023/08/26 09:02:56;;;;;;;5.43;1.10;;;;;;;;;;5085129;28;20255;-94
2023/08/26 09:05:24;;;;;;;3.13;0.90;;;;;;;;;;5092854;28;20203;-93
2023/08/26 09:07:54;;;;;;;2.83;0.93;;;;;;;;;;5093065;28;20199;-94
2023/08/26 09:10:32;;;;;;;4.75;1.00;;;;;;;;;;5094854;28;20217;-94
2023/08/26 09:13:00;;;;;;;4.22;1.05;;;;;;;;;;5096122;28;20222;-94
2023/08/26 09:15:29;;;;;;;3.80;0.80;;;;;;;;;;5097301;28;20198;-95
2023/08/26 09:17:59;;;;;;;3.70;0.98;;;;;;;;;;5099444;28;20292;-94
2023/08/26 09:20:29;;;;;;;3.60;0.68;;;;;;;;;;5095657;28;20268;-92
2023/08/26 09:23:05;;;;;;;4.70;0.95;;;;;;;;;;5095268;28;20203;-94
2023/08/26 09:25:34;;;;;;;3.88;0.85;;;;;;;;;;5095872;28;20202;-96
2023/08/26 09:28:02;;;;;;;3.40;0.90;;;;;;;;;;5095101;28;20198;-95
2023/08/26 09:30:29;;;;;;;2.95;0.80;;;;;;;;;;5096010;28;20205;-95
2023/08/26 09:32:57;;;;;;;3.47;0.90;;;;;;;;;;5100086;28;20194;-96
2023/08/26 09:35:25;;;;;;;2.78;0.60;;;;;;;;;;5088743;28;20206;-94
2023/08/26 09:37:58;;;;;;;2.17;0.70;;;;;;;;;;5074642;28;20636;-92
2023/08/26 09:40:27;;;;;;;2.10;0.70;;;;;;;;;;5074505;28;20215;-93
2023/08/26 09:42:54;;;;;;;2.83;0.70;;;;;;;;;;5075024;28;20675;-94
2023/08/26 09:45:22;;;;;;;2.63;0.70;;;;;;;;;;5075163;28;20615;-92
2023/08/26 10:00:16;;;;;;;2.53;0.73;;;;;;;;;;4952393;29;20234;-90
2023/08/26 10:02:53;;;;;;;3.00;0.70;;;;;;;;;;4958711;28;20203;-89
2023/08/26 10:08:38;;;;;;;2.38;0.88;;;;;;;;;;4951206;28;20199;-88
2023/08/26 10:11:27;;;;;;;2.85;0.90;;;;;;;;;;4935410;29;20204;-89
2023/08/26 10:14:16;;;;;;;2.33;0.80;;;;;;;;;;4938834;29;20204;-89
2023/08/26 10:20:09;;;;;;;4.80;1.77;;;;;;;;;;4894571;29;20259;-88
2023/08/26 10:22:57;;;;;;;3.25;0.80;;;;;;;;;;4899055;29;20209;-88
2023/08/26 10:25:46;;;;;;;4.38;2.08;;;;;;;;;;4913899;29;20221;-90
2023/08/26 10:28:42;;;;;;;2.70;1.10;;;;;;;;;;4918519;29;20674;-89
2023/08/26 10:31:45;;;;;;;;;;;;;;;;;;;;;
2023/08/26 11:07:55;;;;;;;5.18;0.90;;;;;;;;;;4954305;29;20207;-94
2023/08/26 11:10:29;;;;;;;3.50;1.20;;;;;;;;;;4955570;29;20698;-94
2023/08/26 11:12:56;;;;;;;3.15;1.00;;;;;;;;;;4955355;28;20767;-90
2023/08/26 11:15:23;;;;;;;1.52;0.90;;;;;;;;;;4955192;29;20232;-88
2023/08/26 11:17:51;;;;;;;1.88;0.77;;;;;;;;;;4955811;29;20218;-92
2023/08/26 11:20:18;;;;;;;3.80;0.80;;;;;;;;;;4954575;28;20313;-93
2023/08/26 11:22:46;;;;;;;1.75;0.70;;;;;;;;;;4955204;29;20261;-91
2023/08/26 11:25:18;;;;;;;3.20;0.88;;;;;;;;;;4955332;29;20270;-92
2023/08/26 11:27:45;;;;;;;1.92;0.85;;;;;;;;;;4955656;29;20203;-93
2023/08/26 11:30:14;;;;;;;2.08;0.95;;;;;;;;;;4955568;29;20195;-91
2023/08/26 11:32:42;;;;;;;2.38;0.77;;;;;;;;;;4955948;29;20206;-91
2023/08/26 11:35:10;;;;;;;4.43;1.00;;;;;;;;;;4955454;29;20215;-91
2023/08/26 11:37:37;;;;;;;3.50;0.80;;;;;;;;;;4956579;28;20195;-89
2023/08/26 11:40:12;;;;;;;2.38;0.85;;;;;;;;;;4999328;28;20303;-90
2023/08/26 11:42:43;;;;;;;2.58;0.80;;;;;;;;;;5014933;28;20303;-92
2023/08/26 11:45:12;;;;;;;2.83;0.90;;;;;;;;;;5012108;28;20661;-92
2023/08/26 11:47:39;;;;;;;2.45;0.80;;;;;;;;;;5015281;28;20271;-94
2023/08/26 11:50:07;;;;;;;2.42;0.80;;;;;;;;;;5014975;28;20832;-93
2023/08/26 11:52:35;;;;;;;6.32;1.00;;;;;;;;;;5012788;28;20287;-94
2023/08/26 11:55:02;;;;;;;1.52;0.90;;;;;;;;;;5001762;28;20206;-91
2023/08/26 11:57:30;;;;;;;2.53;1.13;;;;;;;;;;5010601;28;20654;-87
2023/08/26 12:00:07;;;;;;;3.72;1.30;;;;;;;;;;4998677;28;20702;-90
2023/08/26 12:02:34;;;;;;;3.58;1.50;;;;;;;;;;5008681;28;20202;-89
2023/08/26 12:05:02;;;;;;;2.90;1.30;;;;;;;;;;5006493;28;20300;-88
2023/08/26 12:07:30;;;;;;;1.38;0.90;;;;;;;;;;4997175;28;20204;-90
2023/08/26 12:10:11;;;;;;;3.17;1.00;;;;;;;;;;5008648;28;20284;-89
2023/08/26 12:12:39;;;;;;;2.45;0.90;;;;;;;;;;5000641;28;20213;-85
2023/08/26 12:15:08;;;;;;;2.60;0.88;;;;;;;;;;5014297;28;20197;-91
2023/08/26 12:17:43;;;;;;;2.55;0.85;;;;;;;;;;5013633;28;20235;-85
2023/08/26 12:20:20;;;;;;;1.33;0.70;;;;;;;;;;4996956;28;20287;-95
2023/08/26 12:22:48;;;;;;;1.83;0.88;;;;;;;;;;5002169;28;20227;-94
2023/08/26 12:25:17;;;;;;;1.90;0.70;;;;;;;;;;5018516;28;20205;-94
2023/08/26 12:27:44;;;;;;;2.15;0.90;;;;;;;;;;5015241;28;20220;-91
2023/08/26 12:30:14;;;;;;;2.28;0.82;;;;;;;;;;5017053;28;20212;-93
2023/08/26 12:32:42;;;;;;;1.92;0.80;;;;;;;;;;4997158;28;20209;-94
2023/08/26 12:35:09;;;;;;;3.53;1.00;;;;;;;;;;5014182;28;20217;-86
2023/08/26 12:37:49;;;;;;;3.05;1.08;;;;;;;;;;5006641;28;20209;-87
2023/08/26 12:40:17;;;;;;;2.13;0.70;;;;;;;;;;5005863;28;20701;-86
2023/08/26 12:42:45;;;;;;;1.85;0.68;;;;;;;;;;5011612;28;20284;-87
2023/08/26 12:45:13;;;;;;;0.90;0.60;;;;;;;;;;5011949;28;20212;-86
2023/08/26 12:47:40;;;;;;;2.38;0.77;;;;;;;;;;5011711;28;20257;-86
2023/08/26 12:50:08;;;;;;;1.90;0.70;;;;;;;;;;5011935;28;20258;-86
2023/08/26 12:52:36;;;;;;;1.45;0.80;;;;;;;;;;5011986;28;20243;-86
2023/08/26 12:55:04;;;;;;;2.15;0.73;;;;;;;;;;5010243;28;20268;-82
2023/08/26 12:57:31;;;;;;;1.75;0.75;;;;;;;;;;5010950;28;20259;-81
2023/08/26 12:59:58;;;;;;;4.63;0.90;;;;;;;;;;5010424;28;20248;-81
2023/08/26 13:02:27;;;;;;;1.25;0.70;;;;;;;;;;5010504;28;20570;-81
2023/08/26 13:04:54;;;;;;;1.25;0.68;;;;;;;;;;5010552;28;20647;-82
2023/08/26 13:07:21;;;;;;;2.63;1.00;;;;;;;;;;5010609;28;20539;-82
2023/08/26 13:09:49;;;;;;;4.57;0.90;;;;;;;;;;5010284;28;20189;-82
2023/08/26 13:12:16;;;;;;;2.80;0.75;;;;;;;;;;5010152;28;20223;-81
2023/08/26 13:14:44;;;;;;;1.38;0.88;;;;;;;;;;5012727;28;20221;-84
2023/08/26 13:17:11;;;;;;;1.70;0.63;;;;;;;;;;5011527;28;20206;-81
2023/08/26 13:19:41;;;;;;;3.40;0.65;;;;;;;;;;5010403;28;20316;-82
2023/08/26 13:22:08;;;;;;;3.63;0.68;;;;;;;;;;5010890;28;20225;-82
2023/08/26 13:24:36;;;;;;;2.83;0.80;;;;;;;;;;5010734;28;20284;-82
2023/08/26 13:27:04;;;;;;;1.55;0.75;;;;;;;;;;5011255;28;20251;-81
2023/08/26 13:29:31;;;;;;;1.48;0.80;;;;;;;;;;5011207;28;20239;-81
2023/08/26 13:31:58;;;;;;;2.63;0.80;;;;;;;;;;5011167;28;20287;-81
2023/08/26 13:34:25;;;;;;;3.03;1.00;;;;;;;;;;5008614;28;20297;-81
2023/08/26 13:36:54;;;;;;;2.78;0.70;;;;;;;;;;5010881;28;20229;-81
2023/08/26 13:39:21;;;;;;;3.53;1.95;;;;;;;;;;5010950;28;20193;-81
2023/08/26 13:41:48;;;;;;;1.58;0.80;;;;;;;;;;5011485;28;20288;-82
2023/08/26 13:44:15;;;;;;;2.55;1.50;;;;;;;;;;5012144;28;20240;-82
2023/08/26 13:46:43;;;;;;;2.20;0.95;;;;;;;;;;5015497;28;20228;-81
2023/08/26 13:49:10;;;;;;;1.15;0.80;;;;;;;;;;5015416;28;20201;-80
2023/08/26 13:51:37;;;;;;;1.48;0.82;;;;;;;;;;5005753;28;20686;-92
2023/08/26 13:54:07;;;;;;;3.53;0.75;;;;;;;;;;5012554;28;20281;-94
2023/08/26 13:56:34;;;;;;;2.22;0.65;;;;;;;;;;5024744;28;20696;-86
2023/08/26 13:59:02;;;;;;;1.88;0.80;;;;;;;;;;5019262;28;20678;-86
2023/08/26 14:01:29;;;;;;;2.55;0.73;;;;;;;;;;5015242;28;20225;-86
2023/08/26 14:03:56;;;;;;;2.85;0.80;;;;;;;;;;5015521;28;20240;-85
2023/08/26 14:06:24;;;;;;;2.03;0.70;;;;;;;;;;5014942;28;20252;-83
2023/08/26 14:08:51;;;;;;;1.90;0.82;;;;;;;;;;5014653;28;20256;-84
2023/08/26 14:11:19;;;;;;;3.65;0.80;;;;;;;;;;5014236;28;20201;-83
2023/08/26 14:13:47;;;;;;;4.93;0.85;;;;;;;;;;5014609;28;20742;-85
2023/08/26 14:16:14;;;;;;;1.45;0.60;;;;;;;;;;5015147;28;20195;-83
2023/08/26 14:18:41;;;;;;;2.90;0.80;;;;;;;;;;5014441;28;20717;-84
2023/08/26 14:21:09;;;;;;;3.13;0.80;;;;;;;;;;5013952;28;20761;-84
2023/08/26 14:23:36;;;;;;;1.35;0.52;;;;;;;;;;5014690;28;20240;-85
2023/08/26 14:26:03;;;;;;;2.05;0.70;;;;;;;;;;5014225;28;20201;-83
2023/08/26 14:28:32;;;;;;;1.30;0.70;;;;;;;;;;5014477;28;20348;-83
2023/08/26 14:30:59;;;;;;;1.50;0.75;;;;;;;;;;5014729;28;20208;-83
2023/08/26 14:33:26;;;;;;;1.77;0.65;;;;;;;;;;5014100;28;20288;-84
2023/08/26 14:35:54;;;;;;;2.05;0.55;;;;;;;;;;5013818;28;20243;-83
2023/08/26 14:38:21;;;;;;;1.38;0.63;;;;;;;;;;5013626;28;20205;-83
2023/08/26 14:40:49;;;;;;;1.65;0.82;;;;;;;;;;5014156;28;20439;-83
2023/08/26 14:43:16;;;;;;;3.33;0.85;;;;;;;;;;5013980;28;20243;-83
2023/08/26 14:45:47;;;;;;;1.75;0.60;;;;;;;;;;5014240;28;20234;-83
2023/08/26 14:48:14;;;;;;;6.53;1.23;;;;;;;;;;5013645;28;20685;-83
2023/08/26 14:50:42;;;;;;;1.25;0.77;;;;;;;;;;5014816;28;20193;-83
2023/08/26 14:53:09;;;;;;;1.60;0.68;;;;;;;;;;5025782;28;20227;-82
2023/08/26 14:55:40;;;;;;;1.70;0.73;;;;;;;;;;5014547;28;20236;-83
2023/08/26 14:58:07;;;;;;;1.67;0.77;;;;;;;;;;5022539;28;20231;-83
2023/08/26 15:00:34;;;;;;;2.78;0.85;;;;;;;;;;5013765;28;23155;-82
2023/08/26 15:03:03;;;;;;;1.92;0.80;;;;;;;;;;5004565;28;20213;-83
2023/08/26 15:05:30;;;;;;;1.25;0.80;;;;;;;;;;5000312;28;20229;-83
2023/08/26 15:07:57;;;;;;;1.67;0.73;;;;;;;;;;4994676;28;20221;-83
2023/08/26 15:10:25;;;;;;;2.85;0.95;;;;;;;;;;5002003;28;20242;-82
2023/08/26 15:12:52;;;;;;;2.53;0.60;;;;;;;;;;5013268;28;20201;-82
2023/08/26 15:15:19;;;;;;;2.38;1.00;;;;;;;;;;5006564;28;20296;-83
2023/08/26 15:17:47;;;;;;;1.75;0.80;;;;;;;;;;5005725;28;20252;-83
2023/08/26 15:20:15;;;;;;;1.17;0.70;;;;;;;;;;5004383;28;20256;-83
2023/08/26 15:22:42;;;;;;;2.00;0.80;;;;;;;;;;5014016;28;20336;-82
2023/08/26 15:25:10;;;;;;;1.33;0.70;;;;;;;;;;5013747;28;20201;-83
2023/08/26 15:27:37;;;;;;;1.63;0.85;;;;;;;;;;5013594;28;20212;-83
2023/08/26 15:30:04;;;;;;;2.50;0.70;;;;;;;;;;5013331;28;20633;-83
2023/08/26 15:32:32;;;;;;;1.42;0.80;;;;;;;;;;5013177;28;20197;-82
2023/08/26 15:34:59;;;;;;;1.98;0.95;;;;;;;;;;5013551;28;20252;-83
2023/08/26 15:37:28;;;;;;;1.27;0.70;;;;;;;;;;5006758;28;20244;-83
2023/08/26 15:39:55;;;;;;;1.52;0.60;;;;;;;;;;4998018;28;20198;-83
2023/08/26 15:42:23;;;;;;;1.38;0.65;;;;;;;;;;5008912;28;20292;-83
2023/08/26 15:44:50;;;;;;;1.55;0.75;;;;;;;;;;5010832;28;20276;-84
2023/08/26 15:47:17;;;;;;;1.70;0.80;;;;;;;;;;5011803;28;20193;-83